Nonquitt, Massachusetts
Current Conditions -  °F | °C
As of 5:19 AM on Thursday 23 Oct 2014 (Local Time) from KEWB Reporting Station
Haze Haze  
Wind Chill: 56°   Ceiling: 400
Heat Index: 56°   Visibility: 6mi
Dew Point: 56°   Wind: 8mph
Humidity: 100%   Direction: 20°NNE
Pressure: 29.58"   Gusts: NA
Location:  41.5609°N, 70.9815°W
Report Text: KEWB 230919Z AUTO 02007KT 6SM BR OVC004 13/13 A2958 RMK AO2 RAE11 P0000 T01330133
Loading
Personal Weather Stations






























Interactive Weather Map
Tropical Storm Tracking
New forecast layout! Learn more

10-Day Weather Forecast

Advertisements
Track Severe Weather on mobile